Terminal Aerodrome Forecast
Issued by NWS Rapid City, SD

Home | Current Version | Previous Version | Graphics & Text | Print | Product List | Glossary On
Versions: 1 2 3 4 5 6 7 8 9 10 11 12 13 14 15 16 17
000
FTUS43 KUNR 182300
TAFRAP
TAF
KRAP 182320Z 1900/1924 35015KT P6SM BKN200
     FM190300 VRB03KT P6SM SCT100
     FM191500 17012KT P6SM SCT050=

USA.gov is the U.S. government's official web portal to all federal, state and local government web resources and services.